createdAt,value
2022-10-04T00:00:44.194Z,20.22
2022-10-04T00:03:52.264Z,20.76
2022-10-04T00:07:02.574Z,20.31
2022-10-04T00:10:18.341Z,20.52
2022-10-04T00:13:26.203Z,20.76
2022-10-04T00:16:32.815Z,21.12
2022-10-04T00:19:47.129Z,20.74
2022-10-04T00:23:29.643Z,20.88
2022-10-04T00:27:11.801Z,21.33
2022-10-04T00:30:22.507Z,21.14
2022-10-04T00:33:35.745Z,20.33
2022-10-04T00:36:53.225Z,20.30
2022-10-04T00:40:04.306Z,20.45
2022-10-04T00:43:09.948Z,20.32
2022-10-04T00:46:15.983Z,20.68
2022-10-04T00:49:21.785Z,20.81
2022-10-04T00:52:30.212Z,21.09
2022-10-04T00:55:39.410Z,20.80
2022-10-04T00:58:51.187Z,20.87
2022-10-04T01:01:58.219Z,21.03
2022-10-04T01:05:04.201Z,20.94
2022-10-04T01:08:13.095Z,20.96
2022-10-04T01:11:20.286Z,20.57
2022-10-04T01:14:33.551Z,20.92
2022-10-04T01:17:36.032Z,20.65
2022-10-04T01:20:41.244Z,20.06
2022-10-04T01:23:47.017Z,20.19
2022-10-04T01:26:49.666Z,20.39
2022-10-04T01:29:52.320Z,20.50
2022-10-04T01:32:54.884Z,20.03
2022-10-04T01:35:57.711Z,20.67
2022-10-04T01:39:01.740Z,21.03
2022-10-04T01:42:10.303Z,20.87
2022-10-04T01:45:21.734Z,21.65
2022-10-04T01:48:29.020Z,21.27
2022-10-04T01:51:34.966Z,20.82
2022-10-04T01:54:43.544Z,21.01
2022-10-04T01:57:50.518Z,21.39
2022-10-04T02:00:59.283Z,22.21
2022-10-04T02:04:06.722Z,21.09
2022-10-04T02:07:14.340Z,21.16
2022-10-04T02:10:21.715Z,20.62
2022-10-04T02:13:29.977Z,20.81
2022-10-04T02:16:38.475Z,20.59
2022-10-04T02:19:45.043Z,21.43
2022-10-04T02:22:51.765Z,21.33
2022-10-04T02:25:55.640Z,21.16
2022-10-04T02:28:58.219Z,20.55
2022-10-04T02:32:33.821Z,20.83
2022-10-04T02:35:38.964Z,20.35
2022-10-04T02:38:45.373Z,20.55
2022-10-04T02:41:53.079Z,20.49
2022-10-04T02:45:02.791Z,20.16
2022-10-04T02:48:14.103Z,20.24
2022-10-04T02:51:21.986Z,20.93
2022-10-04T02:54:31.900Z,20.91
2022-10-04T02:57:36.460Z,20.91
2022-10-04T03:00:48.174Z,21.25
2022-10-04T03:03:50.865Z,20.78
2022-10-04T03:06:55.958Z,21.27
2022-10-04T03:09:58.564Z,20.86
2022-10-04T03:13:02.905Z,20.16
2022-10-04T03:16:06.914Z,19.59
2022-10-04T03:19:11.755Z,19.57
2022-10-04T03:22:14.292Z,19.36
2022-10-04T03:25:19.552Z,19.87
2022-10-04T03:28:23.819Z,19.62
2022-10-04T03:31:28.328Z,19.86
2022-10-04T03:34:37.555Z,19.98
2022-10-04T03:37:41.391Z,20.26
2022-10-04T03:40:51.593Z,20.06
2022-10-04T03:43:56.008Z,19.97
2022-10-04T03:47:00.391Z,20.13
2022-10-04T03:50:07.694Z,20.16
2022-10-04T03:53:16.931Z,19.97
2022-10-04T03:56:22.856Z,20.14
2022-10-04T03:59:29.476Z,19.69
2022-10-04T04:02:39.527Z,19.89
2022-10-04T04:05:48.039Z,19.77
2022-10-04T04:08:54.225Z,19.39
2022-10-04T04:11:58.761Z,19.06
2022-10-04T04:15:07.209Z,19.54
2022-10-04T04:18:15.985Z,19.51
2022-10-04T04:21:20.777Z,19.21
2022-10-04T04:24:29.135Z,18.79
2022-10-04T04:27:37.390Z,19.01
2022-10-04T04:30:46.760Z,19.23
2022-10-04T04:33:59.250Z,19.37
2022-10-04T04:37:03.172Z,19.57
2022-10-04T04:40:25.464Z,19.61
2022-10-04T04:43:28.846Z,19.86
2022-10-04T04:46:33.293Z,19.71
2022-10-04T04:49:39.835Z,19.89
2022-10-04T04:52:46.037Z,20.02
2022-10-04T04:56:03.222Z,20.12
2022-10-04T04:59:08.963Z,19.81
2022-10-04T05:02:35.380Z,19.93
2022-10-04T05:05:38.139Z,19.64
2022-10-04T05:08:41.667Z,19.13
2022-10-04T05:11:44.426Z,19.92
2022-10-04T05:14:50.168Z,20.15
2022-10-04T05:17:54.135Z,20.12
2022-10-04T05:20:59.176Z,20.43
2022-10-04T05:24:12.480Z,20.67
2022-10-04T05:27:18.132Z,20.12
2022-10-04T05:30:40.803Z,20.11
2022-10-04T05:33:50.626Z,20.12
2022-10-04T05:37:16.815Z,19.81
2022-10-04T05:40:33.047Z,19.66
2022-10-04T05:43:38.388Z,19.55
2022-10-04T05:46:44.079Z,20.39
2022-10-04T05:49:48.527Z,20.66
2022-10-04T05:52:52.812Z,21.03
2022-10-04T05:56:07.554Z,20.28
2022-10-04T05:59:27.604Z,20.12
2022-10-04T06:02:47.812Z,20.66
2022-10-04T06:05:55.859Z,20.48
2022-10-04T06:09:12.117Z,20.14
2022-10-04T06:12:30.080Z,19.95
2022-10-04T06:16:00.088Z,20.68
2022-10-04T06:19:23.956Z,21.01
2022-10-04T06:22:27.898Z,21.18
2022-10-04T06:25:39.520Z,20.34
2022-10-04T06:28:46.610Z,20.19
2022-10-04T06:32:08.909Z,20.20
2022-10-04T06:35:26.297Z,19.82
2022-10-04T06:38:54.335Z,20.50
2022-10-04T06:42:21.297Z,21.18
2022-10-04T06:45:36.355Z,20.78
2022-10-04T06:49:14.791Z,21.19
2022-10-04T06:52:36.585Z,21.44
2022-10-04T06:56:19.597Z,21.24
2022-10-04T06:59:47.549Z,21.57
2022-10-04T07:02:56.309Z,22.02
2022-10-04T07:06:03.326Z,22.78
2022-10-04T07:09:14.012Z,22.14
2022-10-04T07:12:19.347Z,22.29
2022-10-04T07:15:27.364Z,22.00
2022-10-04T07:18:35.297Z,22.63
2022-10-04T07:21:46.192Z,22.47
2022-10-04T07:25:08.423Z,23.38
2022-10-04T07:28:34.847Z,22.05
2022-10-04T07:31:38.771Z,22.75
2022-10-04T07:34:46.415Z,23.10
2022-10-04T07:37:54.133Z,22.18
2022-10-04T07:41:08.473Z,21.96
2022-10-04T07:44:20.728Z,20.76
2022-10-04T07:47:27.704Z,20.10
2022-10-04T07:50:34.375Z,20.17
2022-10-04T07:53:44.729Z,20.89
2022-10-04T07:56:55.505Z,21.26
2022-10-04T08:00:05.487Z,21.74
2022-10-04T08:03:23.223Z,22.41
2022-10-04T08:06:34.584Z,21.40
2022-10-04T08:09:46.360Z,22.67
2022-10-04T08:12:53.321Z,22.90
2022-10-04T08:16:02.268Z,23.07
2022-10-04T08:19:24.760Z,22.78
2022-10-04T08:22:40.927Z,22.82
2022-10-04T08:25:52.241Z,22.71
2022-10-04T08:29:24.812Z,22.47
2022-10-04T08:33:06.314Z,22.52
2022-10-04T08:36:23.815Z,22.84
2022-10-04T08:39:41.692Z,22.79
2022-10-04T08:43:06.625Z,23.38
2022-10-04T08:46:33.798Z,24.78
2022-10-04T08:50:20.426Z,24.89
2022-10-04T08:53:53.679Z,24.32
2022-10-04T08:57:16.287Z,24.71
2022-10-04T09:00:26.460Z,24.25
2022-10-04T09:03:51.530Z,24.24
2022-10-04T09:07:14.661Z,23.96
2022-10-04T09:10:40.356Z,24.53
2022-10-04T09:14:09.600Z,24.33
2022-10-04T09:17:22.638Z,24.48
2022-10-04T09:20:41.748Z,24.71
2022-10-04T09:24:16.174Z,24.06
2022-10-04T09:27:54.118Z,24.81
2022-10-04T09:31:16.404Z,25.87
2022-10-04T09:34:38.715Z,25.44
2022-10-04T09:38:02.640Z,25.19
2022-10-04T09:41:43.860Z,24.85
2022-10-04T09:45:06.260Z,25.38
2022-10-04T09:48:26.146Z,25.77
2022-10-04T09:51:45.275Z,25.40
2022-10-04T09:55:24.052Z,25.16
2022-10-04T09:58:48.420Z,25.14
2022-10-04T10:02:18.535Z,25.65
2022-10-04T10:05:31.027Z,25.80
2022-10-04T10:08:42.682Z,25.18
2022-10-04T10:12:12.032Z,25.34
2022-10-04T10:15:25.915Z,24.51
2022-10-04T10:18:43.306Z,23.87
2022-10-04T10:21:56.905Z,23.92
2022-10-04T10:25:09.279Z,23.97
2022-10-04T10:28:34.309Z,24.48
2022-10-04T10:31:55.277Z,25.55
2022-10-04T10:35:17.251Z,25.67
2022-10-04T10:38:32.154Z,24.94
2022-10-04T10:41:53.053Z,25.31
2022-10-04T10:45:21.194Z,25.23
2022-10-04T10:48:36.667Z,25.47
2022-10-04T10:52:11.874Z,25.47
2022-10-04T10:56:02.475Z,26.69
2022-10-04T10:59:55.462Z,25.27
2022-10-04T11:03:31.131Z,24.80
2022-10-04T11:07:20.520Z,24.30
2022-10-04T11:10:51.248Z,25.05
2022-10-04T11:14:14.833Z,25.20
2022-10-04T11:17:50.719Z,26.29
2022-10-04T11:21:21.789Z,26.51
2022-10-04T11:24:56.248Z,27.31
2022-10-04T11:28:12.499Z,26.98
2022-10-04T11:32:07.251Z,26.09
2022-10-04T11:35:39.725Z,26.55
2022-10-04T11:38:58.963Z,26.43
2022-10-04T11:42:12.140Z,26.33
2022-10-04T11:45:43.837Z,27.65
2022-10-04T11:48:59.754Z,28.52
2022-10-04T11:52:27.149Z,29.53
2022-10-04T11:55:54.684Z,29.26
2022-10-04T11:59:18.320Z,29.17
2022-10-04T12:02:56.524Z,28.74
2022-10-04T12:06:11.036Z,27.90
2022-10-04T12:09:20.736Z,26.99
2022-10-04T12:13:07.078Z,28.24
2022-10-04T12:16:33.879Z,28.07
2022-10-04T12:19:59.646Z,27.44
2022-10-04T12:23:21.879Z,26.76
2022-10-04T12:26:44.648Z,26.76
2022-10-04T12:30:12.466Z,27.03
2022-10-04T12:33:23.713Z,27.17
2022-10-04T12:36:39.441Z,26.98
2022-10-04T12:40:04.666Z,26.69
2022-10-04T12:43:14.800Z,26.82
2022-10-04T12:46:26.762Z,26.14
2022-10-04T12:49:41.015Z,26.55
2022-10-04T12:52:52.752Z,26.29
2022-10-04T12:56:05.375Z,25.97
2022-10-04T12:59:20.563Z,25.52
2022-10-04T13:02:36.455Z,25.12
2022-10-04T13:05:51.004Z,25.27
2022-10-04T13:09:08.659Z,25.64
2022-10-04T13:12:29.167Z,25.79
2022-10-04T13:19:12.819Z,25.93
2022-10-04T13:26:23.886Z,26.73
2022-10-04T13:29:32.083Z,26.60
2022-10-04T13:32:43.771Z,25.15
2022-10-04T13:35:54.821Z,25.51
2022-10-04T13:39:16.925Z,25.62
2022-10-04T13:42:40.311Z,25.71
2022-10-04T13:45:53.337Z,25.79
2022-10-04T13:49:13.772Z,25.81
2022-10-04T13:52:47.000Z,26.08
2022-10-04T13:56:14.351Z,26.23
2022-10-04T13:59:32.208Z,26.15
2022-10-04T14:03:02.774Z,25.78
2022-10-04T14:06:30.695Z,25.64
2022-10-04T14:09:46.647Z,25.26
2022-10-04T14:13:27.982Z,25.73
2022-10-04T14:17:15.187Z,26.11
2022-10-04T14:20:48.537Z,25.63
2022-10-04T14:24:35.555Z,25.70
2022-10-04T14:28:17.689Z,26.18
2022-10-04T14:31:23.987Z,26.69
2022-10-04T14:35:00.519Z,26.27
2022-10-04T14:38:27.561Z,25.51
2022-10-04T14:42:11.045Z,26.12
2022-10-04T14:45:35.175Z,26.20
2022-10-04T14:48:54.536Z,26.06
2022-10-04T14:52:08.753Z,25.50
2022-10-04T14:55:26.223Z,25.25
2022-10-04T14:58:42.267Z,25.58
2022-10-04T15:02:07.252Z,25.94
2022-10-04T15:05:32.077Z,25.77
2022-10-04T15:09:07.906Z,25.71
2022-10-04T15:13:09.478Z,25.48
2022-10-04T15:16:15.166Z,25.42
2022-10-04T15:19:27.025Z,25.67
2022-10-04T15:22:31.642Z,25.82
2022-10-04T15:25:44.359Z,25.32
2022-10-04T15:29:03.855Z,25.48
2022-10-04T15:32:16.557Z,24.92
2022-10-04T15:35:28.756Z,25.00
2022-10-04T15:38:35.901Z,25.04
2022-10-04T15:41:49.765Z,25.39
2022-10-04T15:45:36.989Z,25.82
2022-10-04T15:48:54.562Z,26.05
2022-10-04T15:52:11.280Z,26.64
2022-10-04T15:55:25.021Z,25.43
2022-10-04T15:58:53.251Z,25.36
2022-10-04T16:02:37.384Z,24.55
2022-10-04T16:05:44.927Z,24.20
2022-10-04T16:09:06.773Z,23.89
2022-10-04T16:12:23.892Z,23.85
2022-10-04T16:15:35.543Z,23.69
2022-10-04T16:18:52.438Z,23.69
2022-10-04T16:22:08.792Z,23.21
2022-10-04T16:25:42.767Z,23.24
2022-10-04T16:28:56.245Z,22.96
2022-10-04T16:32:04.128Z,22.71
2022-10-04T16:35:16.373Z,22.19
2022-10-04T16:38:25.020Z,22.12
2022-10-04T16:41:35.151Z,22.12
2022-10-04T16:44:48.977Z,21.84
2022-10-04T16:47:58.440Z,22.10
2022-10-04T16:51:43.857Z,22.45
2022-10-04T16:55:01.691Z,22.29
2022-10-04T16:58:56.732Z,22.26
2022-10-04T17:02:27.689Z,22.20
2022-10-04T17:06:13.205Z,22.79
2022-10-04T17:09:25.074Z,22.97
2022-10-04T17:12:35.159Z,21.98
2022-10-04T17:15:48.837Z,21.62
2022-10-04T17:19:10.241Z,20.99
2022-10-04T17:22:28.793Z,20.62
2022-10-04T17:25:39.781Z,20.54
2022-10-04T17:28:51.801Z,20.82
2022-10-04T17:31:59.570Z,21.02
2022-10-04T17:35:17.538Z,20.85
2022-10-04T17:38:30.867Z,21.17
2022-10-04T17:41:50.968Z,20.44
2022-10-04T17:45:29.145Z,20.87
2022-10-04T17:48:55.721Z,20.59
2022-10-04T17:52:22.251Z,20.25
2022-10-04T17:55:29.412Z,19.52
2022-10-04T17:58:41.729Z,19.90
2022-10-04T18:01:48.623Z,19.76
2022-10-04T18:04:55.645Z,19.73
2022-10-04T18:08:03.775Z,19.95
2022-10-04T18:11:18.363Z,19.85
2022-10-04T18:14:39.610Z,19.88
2022-10-04T18:17:46.281Z,20.43
2022-10-04T18:21:05.263Z,19.99
2022-10-04T18:24:20.986Z,20.09
2022-10-04T18:27:26.331Z,20.09
2022-10-04T18:30:29.001Z,19.33
2022-10-04T18:33:48.208Z,20.02
2022-10-04T18:36:57.429Z,19.61
2022-10-04T18:40:14.749Z,18.91
2022-10-04T18:43:27.336Z,18.51
2022-10-04T18:46:39.824Z,17.76
2022-10-04T18:49:49.631Z,17.31
2022-10-04T18:53:14.703Z,17.64
2022-10-04T18:56:18.808Z,17.53
2022-10-04T18:59:53.194Z,17.27
2022-10-04T19:03:04.505Z,17.12
2022-10-04T19:06:16.637Z,16.95
2022-10-04T19:09:26.324Z,16.70
2022-10-04T19:12:35.055Z,16.92
2022-10-04T19:15:57.926Z,17.17
2022-10-04T19:19:20.673Z,16.97
2022-10-04T19:22:33.448Z,16.69
2022-10-04T19:25:39.284Z,16.44
2022-10-04T19:28:42.258Z,16.50
2022-10-04T19:31:53.719Z,17.03
2022-10-04T19:35:09.224Z,17.38
2022-10-04T19:38:25.665Z,17.47
2022-10-04T19:41:42.016Z,17.69
2022-10-04T19:45:02.190Z,17.87
2022-10-04T19:48:15.325Z,17.92
2022-10-04T19:51:28.810Z,18.34
2022-10-04T19:54:39.766Z,18.50
2022-10-04T19:57:44.164Z,18.57
2022-10-04T20:00:46.696Z,18.86
2022-10-04T20:04:12.501Z,19.35
2022-10-04T20:07:22.363Z,19.55
2022-10-04T20:10:33.449Z,19.66
2022-10-04T20:13:35.959Z,19.53
2022-10-04T20:17:04.396Z,19.88
2022-10-04T20:20:08.255Z,19.96
2022-10-04T20:23:12.737Z,19.90
2022-10-04T20:26:56.250Z,18.96
2022-10-04T20:30:01.814Z,19.04
2022-10-04T20:33:04.414Z,19.62
2022-10-04T20:36:09.923Z,19.91
2022-10-04T20:40:00.495Z,20.03
2022-10-04T20:43:26.049Z,20.04
2022-10-04T20:46:32.659Z,19.75
2022-10-04T20:49:35.197Z,19.55
2022-10-04T20:52:44.180Z,19.95
2022-10-04T20:55:46.927Z,19.85
2022-10-04T20:58:52.281Z,19.96
2022-10-04T21:02:03.809Z,20.26
2022-10-04T21:05:16.275Z,19.63
2022-10-04T21:08:25.241Z,19.80
2022-10-04T21:11:44.765Z,19.50
2022-10-04T21:15:03.017Z,19.38
2022-10-04T21:18:07.668Z,19.41
2022-10-04T21:21:10.707Z,19.37
2022-10-04T21:27:43.400Z,20.28
2022-10-04T21:30:45.867Z,20.37
2022-10-04T21:33:48.321Z,20.33
2022-10-04T21:36:50.827Z,20.09
2022-10-04T21:39:53.339Z,20.49
2022-10-04T21:42:57.142Z,20.83
2022-10-04T21:45:59.692Z,20.62
2022-10-04T21:49:02.176Z,20.24
2022-10-04T21:52:04.934Z,19.97
2022-10-04T21:55:10.575Z,19.94
2022-10-04T21:58:14.535Z,20.39
2022-10-04T22:01:17.286Z,20.08
2022-10-04T22:04:19.983Z,20.02
2022-10-04T22:07:22.446Z,20.11
2022-10-04T22:10:24.996Z,19.78
2022-10-04T22:13:28.843Z,20.51
2022-10-04T22:16:31.407Z,19.72
2022-10-04T22:19:33.906Z,20.43
2022-10-04T22:22:39.753Z,19.99
2022-10-04T22:25:42.475Z,19.93
2022-10-04T22:28:48.976Z,19.89
2022-10-04T22:31:52.914Z,20.25
2022-10-04T22:35:02.122Z,20.08
2022-10-04T22:38:06.509Z,20.50
2022-10-04T22:41:11.259Z,19.92
2022-10-04T22:44:17.100Z,20.15
2022-10-04T22:47:19.577Z,19.97
2022-10-04T22:50:30.129Z,20.48
2022-10-04T22:53:32.592Z,20.57
2022-10-04T22:56:35.011Z,20.70
2022-10-04T22:59:41.598Z,20.10
2022-10-04T23:02:44.165Z,19.77
2022-10-04T23:05:46.697Z,20.05
2022-10-04T23:08:49.190Z,19.91
2022-10-04T23:11:51.626Z,19.51
2022-10-04T23:14:55.575Z,19.76
2022-10-04T23:17:58.046Z,19.11
2022-10-04T23:21:01.968Z,19.47
2022-10-04T23:24:15.443Z,19.40
2022-10-04T23:27:18.773Z,19.25
2022-10-04T23:30:23.522Z,19.88
2022-10-04T23:33:26.004Z,19.78
2022-10-04T23:36:29.084Z,19.98
2022-10-04T23:39:34.649Z,19.30
2022-10-04T23:42:37.223Z,19.34
2022-10-04T23:45:42.071Z,18.87
2022-10-04T23:48:45.336Z,19.19
2022-10-04T23:51:48.779Z,18.60
2022-10-04T23:54:52.669Z,18.72
2022-10-04T23:57:55.124Z,19.15
